Time;durP1;ratioP1;P1;durP2;ratioP2;P2;SDS_P1;SDS_P2;PMS_P1;PMS_P2;Temp;Humidity;BMP_temperature;BMP_pressure;BME280_temperature;BME280_humidity;BME280_pressure;Samples;Min_cycle;Max_cycle;Signal;HPM_P1;HPM_P2
2023/07/17 01:48:52;;;;;;;23.45;20.85;;;;;;;;;;6329618;22;20037;-94
2023/07/17 02:07:54;;;;;;;24.10;21.85;;;;;;;;;;6362081;22;20018;-94
2023/07/17 04:03:25;;;;;;;21.17;19.05;;;;;;;;;;6298068;22;20038;31
2023/07/17 05:02:20;;;;;;;11.50;9.40;;;;;;;;;;6391187;22;20026;-95
2023/07/17 05:34:01;;;;;;;;;;;;;;;;;;;;;
2023/07/17 05:40:37;;;;;;;;;;;;;;;;;;;;;
2023/07/17 05:46:26;;;;;;;10.23;9.23;;;;;;;;;;6373612;22;20017;-94
2023/07/17 05:58:06;;;;;;;10.95;7.20;;;;;;;;;;6372900;22;20056;-94
2023/07/17 06:00:35;;;;;;;11.32;8.30;;;;;;;;;;6346474;22;20002;-96
2023/07/17 06:03:02;;;;;;;10.43;7.63;;;;;;;;;;6346829;22;20327;-95
2023/07/17 06:05:28;;;;;;;10.68;8.05;;;;;;;;;;6347055;22;20002;-93
2023/07/17 06:08:02;;;;;;;10.35;8.13;;;;;;;;;;6346565;22;20002;-95
2023/07/17 06:10:30;;;;;;;11.15;6.72;;;;;;;;;;6359969;22;20097;-95
2023/07/17 06:12:56;;;;;;;7.90;7.10;;;;;;;;;;6371591;22;20009;-96
2023/07/17 06:15:22;;;;;;;8.95;6.50;;;;;;;;;;6345760;22;20002;-95
2023/07/17 06:17:53;;;;;;;9.60;7.28;;;;;;;;;;6344616;22;20423;-96
2023/07/17 06:20:29;;;;;;;11.63;7.30;;;;;;;;;;6345471;22;20453;-96
2023/07/17 06:22:58;;;;;;;6.63;5.97;;;;;;;;;;6331055;22;20451;-96
2023/07/17 06:25:24;;;;;;;9.15;7.45;;;;;;;;;;6345254;22;20085;-95
2023/07/17 06:27:50;;;;;;;7.25;5.88;;;;;;;;;;6345030;22;20003;-96
2023/07/17 06:30:17;;;;;;;9.57;7.65;;;;;;;;;;6344666;22;20010;-96
2023/07/17 06:32:44;;;;;;;7.80;6.30;;;;;;;;;;6344346;22;20002;-95
2023/07/17 06:38:13;;;;;;;10.60;7.00;;;;;;;;;;6372202;22;20460;-95
2023/07/17 06:40:40;;;;;;;7.07;6.22;;;;;;;;;;6345572;22;20006;-96
2023/07/17 06:43:06;;;;;;;10.23;6.90;;;;;;;;;;6344033;22;20015;-94
2023/07/17 06:45:39;;;;;;;10.50;6.57;;;;;;;;;;6344505;22;19998;-94
2023/07/17 06:48:06;;;;;;;7.43;6.68;;;;;;;;;;6344126;22;20427;-94
2023/07/17 06:50:35;;;;;;;9.02;6.53;;;;;;;;;;6344059;22;20037;-94
2023/07/17 06:53:07;;;;;;;8.18;6.30;;;;;;;;;;6344440;22;20022;-94
2023/07/17 06:55:33;;;;;;;8.50;6.32;;;;;;;;;;6348093;22;20010;-93
2023/07/17 06:58:02;;;;;;;7.32;6.63;;;;;;;;;;6347305;22;20009;-93
2023/07/17 07:00:34;;;;;;;8.57;5.90;;;;;;;;;;6348418;22;20422;-95
2023/07/17 07:03:06;;;;;;;7.68;6.00;;;;;;;;;;6344292;22;20026;-94
2023/07/17 07:08:31;;;;;;;10.23;7.22;;;;;;;;;;6307418;22;20014;-93
2023/07/17 07:11:02;;;;;;;10.88;7.15;;;;;;;;;;6280293;22;20007;-93
2023/07/17 07:19:29;;;;;;;8.18;6.57;;;;;;;;;;6308415;22;20068;-93
2023/07/17 07:21:58;;;;;;;9.65;6.43;;;;;;;;;;6295369;22;20030;-89
2023/07/17 07:24:32;;;;;;;7.70;6.13;;;;;;;;;;6309933;22;20011;-92
2023/07/17 07:27:07;;;;;;;7.30;5.90;;;;;;;;;;6289793;22;20061;-93
2023/07/17 07:29:33;;;;;;;8.90;5.68;;;;;;;;;;6265732;22;20035;-94
2023/07/17 07:32:17;;;;;;;6.18;5.40;;;;;;;;;;6276964;22;20019;-93
2023/07/17 07:34:43;;;;;;;6.10;4.72;;;;;;;;;;6278873;22;20476;-93
2023/07/17 07:37:10;;;;;;;8.80;5.55;;;;;;;;;;6294153;22;20003;-93
2023/07/17 07:39:36;;;;;;;8.70;5.88;;;;;;;;;;6328534;22;19995;-94
2023/07/17 07:42:08;;;;;;;8.75;5.82;;;;;;;;;;6317181;22;20058;-93
2023/07/17 07:44:34;;;;;;;8.02;5.15;;;;;;;;;;6315642;22;20002;-93
2023/07/17 07:47:16;;;;;;;;;;;;;;;;;;;;;
2023/07/17 07:49:43;;;;;;;10.93;6.00;;;;;;;;;;6342403;22;20373;-95
2023/07/17 07:52:09;;;;;;;7.72;5.90;;;;;;;;;;6315710;22;20057;-95
2023/07/17 07:54:41;;;;;;;9.57;5.53;;;;;;;;;;6318414;22;20293;-95
2023/07/17 07:57:13;;;;;;;6.80;5.85;;;;;;;;;;6309257;22;20076;-95
2023/07/17 07:59:47;;;;;;;7.28;5.38;;;;;;;;;;6307341;22;20003;-96
2023/07/17 08:02:14;;;;;;;6.72;5.15;;;;;;;;;;6315964;22;20003;-95
2023/07/17 08:04:46;;;;;;;9.30;5.82;;;;;;;;;;6313354;22;20433;-96
2023/07/17 08:07:36;;;;;;;10.85;5.95;;;;;;;;;;6285286;22;20011;-96
2023/07/17 08:10:15;;;;;;;;;;;;;;;;;;;;;
2023/07/17 08:13:19;;;;;;;5.65;5.03;;;;;;;;;;6217837;23;20036;-94
2023/07/17 08:15:54;;;;;;;12.88;5.82;;;;;;;;;;6203932;22;20004;-95
2023/07/17 08:18:25;;;;;;;10.48;4.90;;;;;;;;;;6311469;22;20078;-94
2023/07/17 08:20:51;;;;;;;9.13;5.20;;;;;;;;;;6309929;22;20057;-95
2023/07/17 08:23:28;;;;;;;7.40;4.80;;;;;;;;;;6312226;22;20003;-92
2023/07/17 08:25:54;;;;;;;7.10;4.70;;;;;;;;;;6262261;22;20440;-94
2023/07/17 08:28:21;;;;;;;8.07;4.97;;;;;;;;;;6258120;22;20004;-95
2023/07/17 08:30:47;;;;;;;17.33;5.55;;;;;;;;;;6308831;22;20003;-96
2023/07/17 08:33:16;;;;;;;10.55;5.60;;;;;;;;;;6284788;22;20033;-94
2023/07/17 08:35:48;;;;;;;48.22;10.40;;;;;;;;;;6282821;22;20003;-96
2023/07/17 08:38:17;;;;;;;7.65;5.75;;;;;;;;;;6275078;22;20456;-95
2023/07/17 08:40:56;;;;;;;8.88;5.38;;;;;;;;;;6308903;22;20412;-94
2023/07/17 08:43:25;;;;;;;8.90;5.97;;;;;;;;;;6311319;22;20328;-96
2023/07/17 08:45:52;;;;;;;6.25;5.45;;;;;;;;;;6310655;22;19999;-95
2023/07/17 08:48:20;;;;;;;11.43;6.28;;;;;;;;;;6309063;22;20032;-95
2023/07/17 08:50:51;;;;;;;5.75;5.07;;;;;;;;;;6307907;22;20003;-95
2023/07/17 08:53:24;;;;;;;8.25;5.80;;;;;;;;;;6281773;22;20007;-93
2023/07/17 08:56:06;;;;;;;7.68;5.05;;;;;;;;;;6308549;22;20012;-96
2023/07/17 08:58:32;;;;;;;10.05;5.00;;;;;;;;;;6282281;22;20011;-96
2023/07/17 09:01:01;;;;;;;7.22;5.70;;;;;;;;;;6282180;22;20420;-94
2023/07/17 09:03:37;;;;;;;7.60;5.35;;;;;;;;;;6321536;22;20023;-95
2023/07/17 09:06:07;;;;;;;6.50;4.88;;;;;;;;;;6313020;22;20025;-94
2023/07/17 09:08:33;;;;;;;14.80;5.63;;;;;;;;;;6313371;22;20057;-93
2023/07/17 09:11:09;;;;;;;6.68;5.35;;;;;;;;;;6313395;22;20030;-93
2023/07/17 09:13:44;;;;;;;6.60;5.20;;;;;;;;;;6313790;22;20442;-92
2023/07/17 09:16:20;;;;;;;10.98;5.55;;;;;;;;;;6313036;22;19998;-93
2023/07/17 09:18:50;;;;;;;7.43;5.50;;;;;;;;;;6313732;22;20007;-93
2023/07/17 09:21:17;;;;;;;8.02;6.32;;;;;;;;;;6313131;22;20055;-94
2023/07/17 09:23:44;;;;;;;8.95;6.50;;;;;;;;;;6313310;22;20301;-93
2023/07/17 09:26:15;;;;;;;8.30;6.25;;;;;;;;;;6313242;22;20007;-93
2023/07/17 09:28:51;;;;;;;7.38;5.35;;;;;;;;;;6313032;22;20003;-92
2023/07/17 09:31:33;;;;;;;9.93;5.07;;;;;;;;;;6312915;22;20046;-91
2023/07/17 09:34:19;;;;;;;17.13;5.13;;;;;;;;;;6313889;22;20006;-91
2023/07/17 09:36:50;;;;;;;6.40;4.60;;;;;;;;;;6313219;22;20432;-93
2023/07/17 09:39:16;;;;;;;5.70;4.47;;;;;;;;;;6325251;22;20044;-93
2023/07/17 09:41:42;;;;;;;6.18;4.50;;;;;;;;;;6343172;22;20025;-91
2023/07/17 09:44:17;;;;;;;5.90;4.40;;;;;;;;;;6364862;22;20055;-91
2023/07/17 09:46:49;;;;;;;10.07;4.28;;;;;;;;;;6340992;22;20007;-92
2023/07/17 09:49:21;;;;;;;5.35;4.22;;;;;;;;;;6338941;22;20432;-93
2023/07/17 09:51:48;;;;;;;7.53;4.20;;;;;;;;;;6339975;22;20462;-93
2023/07/17 09:54:29;;;;;;;5.13;4.28;;;;;;;;;;6370216;22;20055;-94
2023/07/17 09:57:08;;;;;;;6.10;4.40;;;;;;;;;;6369912;22;20059;-94
2023/07/17 09:59:56;;;;;;;4.78;4.15;;;;;;;;;;6370233;22;20006;-94
2023/07/17 10:02:34;;;;;;;6.47;4.45;;;;;;;;;;6371799;22;20014;-94
2023/07/17 10:05:17;;;;;;;6.65;4.57;;;;;;;;;;6370839;22;20006;-94
2023/07/17 10:10:54;;;;;;;6.88;4.95;;;;;;;;;;6375815;22;20093;-94
2023/07/17 10:13:27;;;;;;;6.95;4.93;;;;;;;;;;6376241;22;20070;-93
2023/07/17 10:16:02;;;;;;;5.63;4.70;;;;;;;;;;6373274;22;20006;-93
2023/07/17 10:21:37;;;;;;;7.93;4.70;;;;;;;;;;6320174;22;20029;-96
2023/07/17 10:26:51;;;;;;;6.97;4.55;;;;;;;;;;6334557;22;20023;-94
2023/07/17 10:32:21;;;;;;;8.38;3.53;;;;;;;;;;6355986;22;20049;-93
2023/07/17 10:34:48;;;;;;;7.90;4.20;;;;;;;;;;6376658;22;20081;-93
2023/07/17 10:37:19;;;;;;;6.60;4.30;;;;;;;;;;6376916;22;20013;-93
2023/07/17 10:40:22;;;;;;;6.90;4.43;;;;;;;;;;6377419;22;20085;-93
2023/07/17 10:42:50;;;;;;;;;;;;;;;;;;6278596;22;20035;-95
2023/07/17 10:45:18;;;;;;;8.82;4.50;;;;;;;;;;6356048;22;19898;-95
2023/07/17 10:47:49;;;;;;;11.18;4.60;;;;;;;;;;6372971;22;20435;-95
2023/07/17 10:50:17;;;;;;;11.73;4.38;;;;;;;;;;6377734;22;20002;-94
2023/07/17 10:52:43;;;;;;;10.55;4.63;;;;;;;;;;6380022;22;20427;-95
2023/07/17 10:55:13;;;;;;;7.80;4.25;;;;;;;;;;6380105;22;20002;-94
2023/07/17 10:57:51;;;;;;;10.57;4.60;;;;;;;;;;6377752;22;20002;-94
2023/07/17 11:00:18;;;;;;;7.88;4.55;;;;;;;;;;6341212;22;20104;-95
2023/07/17 11:02:44;;;;;;;7.20;4.05;;;;;;;;;;6313712;22;20003;-95
2023/07/17 11:05:10;;;;;;;6.18;4.43;;;;;;;;;;6313910;22;20022;-94
2023/07/17 11:07:36;;;;;;;7.13;4.93;;;;;;;;;;6313348;22;20042;-95
2023/07/17 11:10:10;;;;;;;7.80;4.70;;;;;;;;;;6313499;22;20003;-96
2023/07/17 11:12:36;;;;;;;8.02;5.10;;;;;;;;;;6313412;22;20010;-94
2023/07/17 11:15:03;;;;;;;7.38;5.10;;;;;;;;;;6313531;22;20009;-93
2023/07/17 11:17:30;;;;;;;9.02;5.32;;;;;;;;;;6313434;22;20427;-95
2023/07/17 11:20:03;;;;;;;7.05;4.80;;;;;;;;;;6315187;22;20056;-95
2023/07/17 11:25:33;;;;;;;6.55;4.78;;;;;;;;;;6296316;22;20010;-93
2023/07/17 11:28:01;;;;;;;5.78;4.78;;;;;;;;;;6336712;22;19990;-94
2023/07/17 11:30:34;;;;;;;5.45;4.30;;;;;;;;;;6347051;22;19994;-92
2023/07/17 11:33:00;;;;;;;8.65;5.03;;;;;;;;;;6316497;22;20026;-93
2023/07/17 11:35:39;;;;;;;8.23;4.60;;;;;;;;;;6316877;22;20021;-95
2023/07/17 11:38:06;;;;;;;8.15;4.90;;;;;;;;;;6316924;22;20006;-95
2023/07/17 11:40:48;;;;;;;5.78;4.68;;;;;;;;;;6318681;22;20017;-94
2023/07/17 11:43:14;;;;;;;6.90;4.40;;;;;;;;;;6333233;22;20003;-94
2023/07/17 11:45:41;;;;;;;5.28;4.05;;;;;;;;;;6317656;22;20233;-94
2023/07/17 11:48:07;;;;;;;7.05;4.15;;;;;;;;;;6314911;22;20082;-95
2023/07/17 11:50:38;;;;;;;6.25;4.10;;;;;;;;;;6318364;22;20003;-96
2023/07/17 11:53:16;;;;;;;6.10;3.60;;;;;;;;;;6315101;22;20489;-95
2023/07/17 11:55:44;;;;;;;4.70;2.97;;;;;;;;;;6317856;22;19999;-94
2023/07/17 11:58:24;;;;;;;4.65;2.85;;;;;;;;;;6315336;22;20002;-95
2023/07/17 12:00:51;;;;;;;3.38;2.65;;;;;;;;;;6315270;22;19998;-94
2023/07/17 12:03:17;;;;;;;6.35;2.50;;;;;;;;;;6313580;22;20131;-94
2023/07/17 12:18:56;;;;;;;4.97;2.50;;;;;;;;;;6363361;22;20010;-94
2023/07/17 12:21:22;;;;;;;6.43;2.15;;;;;;;;;;6346150;22;20430;-94
2023/07/17 12:23:59;;;;;;;4.00;2.17;;;;;;;;;;6347462;22;20002;-96
2023/07/17 12:26:47;;;;;;;6.45;2.30;;;;;;;;;;6347373;22;20009;-95
2023/07/17 12:29:19;;;;;;;2.85;2.28;;;;;;;;;;6345196;22;20009;-95
2023/07/17 12:31:45;;;;;;;3.22;2.30;;;;;;;;;;6346190;22;20085;-94
2023/07/17 12:34:12;;;;;;;4.70;2.28;;;;;;;;;;6345188;22;19998;-95
2023/07/17 12:36:41;;;;;;;5.00;2.75;;;;;;;;;;6349213;22;20394;-96
2023/07/17 12:39:30;;;;;;;4.05;2.70;;;;;;;;;;6348938;22;19999;-95
2023/07/17 12:42:06;;;;;;;4.70;2.60;;;;;;;;;;6330203;22;20423;-96
2023/07/17 12:44:33;;;;;;;3.85;2.35;;;;;;;;;;6345551;22;20013;-96
2023/07/17 12:46:59;;;;;;;4.00;2.53;;;;;;;;;;6348104;22;20006;-96
2023/07/17 12:49:30;;;;;;;5.97;2.72;;;;;;;;;;6349788;22;19990;-96
2023/07/17 12:51:56;;;;;;;4.43;2.92;;;;;;;;;;6345493;22;20022;-93
2023/07/17 12:54:22;;;;;;;4.28;2.72;;;;;;;;;;6349385;22;19998;-95
2023/07/17 12:56:54;;;;;;;3.38;2.60;;;;;;;;;;6347523;22;20009;-96
2023/07/17 13:02:18;;;;;;;5.15;2.83;;;;;;;;;;6352088;22;20006;-94
2023/07/17 13:04:45;;;;;;;4.32;2.63;;;;;;;;;;6345883;22;20006;-96
2023/07/17 13:07:41;;;;;;;3.20;2.50;;;;;;;;;;6347601;22;20002;-93
2023/07/17 13:10:15;;;;;;;4.90;3.10;;;;;;;;;;6348232;22;20003;-95
2023/07/17 13:12:44;;;;;;;3.42;2.80;;;;;;;;;;6360929;22;19999;-94
2023/07/17 13:15:10;;;;;;;3.70;2.83;;;;;;;;;;6372851;22;20006;-94
2023/07/17 13:20:15;;;;;;;6.68;2.80;;;;;;;;;;6389290;22;20047;-96
2023/07/17 13:22:41;;;;;;;3.28;2.90;;;;;;;;;;6355973;22;20014;-89
2023/07/17 13:25:07;;;;;;;3.75;2.67;;;;;;;;;;6346677;22;20013;-89
2023/07/17 13:27:39;;;;;;;4.07;2.90;;;;;;;;;;6373711;22;20006;-96
2023/07/17 13:30:06;;;;;;;4.47;3.20;;;;;;;;;;6344430;22;19998;-94
2023/07/17 13:32:41;;;;;;;4.30;3.10;;;;;;;;;;6344990;22;20079;-94
2023/07/17 13:35:14;;;;;;;4.72;3.13;;;;;;;;;;6374298;22;19998;-95
2023/07/17 13:37:43;;;;;;;4.05;3.03;;;;;;;;;;6321924;22;20011;-94
2023/07/17 13:40:10;;;;;;;4.88;3.00;;;;;;;;;;6347239;22;20005;-93
2023/07/17 13:42:36;;;;;;;3.90;3.00;;;;;;;;;;6364790;22;20010;-96
2023/07/17 13:45:03;;;;;;;5.30;3.00;;;;;;;;;;6354614;22;20024;-93
2023/07/17 13:47:29;;;;;;;6.90;3.10;;;;;;;;;;6346561;22;20002;-96
2023/07/17 13:49:56;;;;;;;3.67;2.95;;;;;;;;;;6345165;22;20056;-95
2023/07/17 13:52:22;;;;;;;3.72;3.20;;;;;;;;;;6344037;22;20014;-96
2023/07/17 13:54:51;;;;;;;3.63;2.63;;;;;;;;;;6344172;22;20002;-96
2023/07/17 13:57:18;;;;;;;4.20;2.95;;;;;;;;;;6371793;22;20010;-95
2023/07/17 13:59:45;;;;;;;4.38;3.00;;;;;;;;;;6344956;22;20034;-94
2023/07/17 14:02:11;;;;;;;3.38;2.90;;;;;;;;;;6343889;22;19998;-96
2023/07/17 14:04:40;;;;;;;3.58;2.80;;;;;;;;;;6344460;22;20002;-95
2023/07/17 14:07:06;;;;;;;3.25;2.65;;;;;;;;;;6344171;22;20077;-96
2023/07/17 14:09:35;;;;;;;3.15;2.60;;;;;;;;;;6344055;22;20034;-95
2023/07/17 14:12:04;;;;;;;3.38;2.83;;;;;;;;;;6343961;22;20085;-96
2023/07/17 14:14:31;;;;;;;3.55;2.90;;;;;;;;;;6344488;22;20372;-95
2023/07/17 14:16:57;;;;;;;4.07;2.92;;;;;;;;;;6344140;22;20003;-93
2023/07/17 14:19:23;;;;;;;5.82;3.03;;;;;;;;;;6343518;22;20013;-96
2023/07/17 14:21:50;;;;;;;3.88;2.72;;;;;;;;;;6342619;22;20003;-93
2023/07/17 14:24:17;;;;;;;3.60;2.60;;;;;;;;;;6371729;22;20002;-96
2023/07/17 14:26:43;;;;;;;6.25;2.70;;;;;;;;;;6344433;22;20002;-96
2023/07/17 14:29:09;;;;;;;3.88;2.63;;;;;;;;;;6344221;22;20063;-96
2023/07/17 14:31:35;;;;;;;3.30;2.33;;;;;;;;;;6343944;22;20002;-96
2023/07/17 14:34:01;;;;;;;4.00;2.50;;;;;;;;;;6344809;22;20083;-95
2023/07/17 14:36:30;;;;;;;5.15;2.72;;;;;;;;;;6344222;22;20010;-96
2023/07/17 14:40:00;;;;;;;4.30;2.78;;;;;;;;;;6345273;22;20006;-95
2023/07/17 14:42:10;;;;;;;4.03;2.67;;;;;;;;;;6364762;22;20003;-94
2023/07/17 14:44:36;;;;;;;4.35;2.35;;;;;;;;;;6316138;22;20312;-94
2023/07/17 14:47:02;;;;;;;3.28;2.70;;;;;;;;;;6344582;22;20051;-95
2023/07/17 14:49:31;;;;;;;4.80;2.63;;;;;;;;;;6345045;22;20013;-94
2023/07/17 14:52:23;;;;;;;2.92;2.53;;;;;;;;;;6344288;22;20009;-94
2023/07/17 14:54:50;;;;;;;2.88;2.40;;;;;;;;;;6341385;22;20011;-93
2023/07/17 14:57:50;;;;;;;5.88;2.40;;;;;;;;;;6347301;22;20009;-93
2023/07/17 15:00:13;;;;;;;4.97;2.70;;;;;;;;;;6395394;22;20011;-94
2023/07/17 15:02:40;;;;;;;3.10;2.70;;;;;;;;;;6362575;22;20013;-93
2023/07/17 15:05:07;;;;;;;9.15;2.90;;;;;;;;;;6344162;22;20009;-92
2023/07/17 15:07:33;;;;;;;4.80;2.90;;;;;;;;;;6343768;22;20003;-88
2023/07/17 15:10:02;;;;;;;4.03;2.60;;;;;;;;;;6344042;22;20006;-94
2023/07/17 15:29:32;;;;;;;10.45;4.40;;;;;;;;;;6275599;22;20420;-93
2023/07/17 15:38:18;;;;;;;5.05;2.50;;;;;;;;;;6372973;22;20017;-96
2023/07/17 15:41:13;;;;;;;3.97;2.75;;;;;;;;;;6361035;22;19997;-95
2023/07/17 15:43:37;;;;;;;6.50;2.80;;;;;;;;;;6382424;22;20006;-94
2023/07/17 15:49:01;;;;;;;4.18;2.83;;;;;;;;;;6337080;22;20331;-93
2023/07/17 15:51:34;;;;;;;4.47;2.70;;;;;;;;;;6345587;22;20006;-96
2023/07/17 15:54:00;;;;;;;4.85;2.70;;;;;;;;;;6373622;22;20006;-94
2023/07/17 15:56:26;;;;;;;3.90;2.72;;;;;;;;;;6345678;22;20028;-92
2023/07/17 15:58:53;;;;;;;3.78;2.40;;;;;;;;;;6345558;22;20025;-91
2023/07/17 16:01:19;;;;;;;4.55;2.72;;;;;;;;;;6346097;22;20001;-93
2023/07/17 16:03:45;;;;;;;4.85;2.45;;;;;;;;;;6359758;22;20007;-94
2023/07/17 16:06:12;;;;;;;5.03;2.88;;;;;;;;;;6372472;22;20012;-93
2023/07/17 16:08:43;;;;;;;3.40;2.40;;;;;;;;;;6366454;22;20006;-92
2023/07/17 16:11:12;;;;;;;4.40;2.50;;;;;;;;;;6347260;22;20010;-91
2023/07/17 16:13:53;;;;;;;4.28;2.40;;;;;;;;;;6349931;22;20430;-94
2023/07/17 16:16:20;;;;;;;5.93;2.80;;;;;;;;;;6373159;22;19995;-92
2023/07/17 16:18:46;;;;;;;4.57;2.70;;;;;;;;;;6339061;22;20047;-90
2023/07/17 16:21:28;;;;;;;3.70;2.90;;;;;;;;;;6321265;22;20006;-90
2023/07/17 16:23:54;;;;;;;7.35;3.00;;;;;;;;;;6310564;22;20073;-92
2023/07/17 16:26:23;;;;;;;6.60;2.78;;;;;;;;;;6314200;22;20485;-92
2023/07/17 16:28:49;;;;;;;4.88;2.70;;;;;;;;;;6310609;22;20014;-91
2023/07/17 16:31:21;;;;;;;5.40;2.70;;;;;;;;;;6312498;22;20031;-90
2023/07/17 16:33:47;;;;;;;5.63;2.70;;;;;;;;;;6309153;22;20031;-94
2023/07/17 16:36:13;;;;;;;6.35;3.00;;;;;;;;;;6311288;22;20003;-92
2023/07/17 16:38:39;;;;;;;3.75;2.72;;;;;;;;;;6308683;22;20003;-92
2023/07/17 16:41:07;;;;;;;5.10;2.72;;;;;;;;;;6308213;22;20006;-94
2023/07/17 16:43:33;;;;;;;2.90;2.45;;;;;;;;;;6308511;22;20003;-91
2023/07/17 16:45:59;;;;;;;3.63;2.80;;;;;;;;;;6308456;22;20034;-91
2023/07/17 16:48:25;;;;;;;3.60;2.50;;;;;;;;;;6307890;22;20030;-91
2023/07/17 16:50:57;;;;;;;3.33;2.83;;;;;;;;;;6309417;22;20010;-92
2023/07/17 16:53:24;;;;;;;3.83;2.58;;;;;;;;;;6308081;22;20026;-93
2023/07/17 16:55:51;;;;;;;4.07;2.75;;;;;;;;;;6308196;22;20006;-91
2023/07/17 16:58:17;;;;;;;3.28;2.90;;;;;;;;;;6309182;22;20003;-92
2023/07/17 17:00:55;;;;;;;3.58;2.83;;;;;;;;;;6308425;22;20003;-90
2023/07/17 17:03:22;;;;;;;3.80;2.90;;;;;;;;;;6308351;22;20000;-92
2023/07/17 17:05:54;;;;;;;4.82;3.00;;;;;;;;;;6308083;22;20014;-94
2023/07/17 17:08:20;;;;;;;5.55;3.28;;;;;;;;;;6308354;22;20006;-92
2023/07/17 17:10:51;;;;;;;3.38;2.90;;;;;;;;;;6308635;22;20312;-91
2023/07/17 17:13:39;;;;;;;6.47;3.00;;;;;;;;;;6316421;22;20025;-96
2023/07/17 17:16:05;;;;;;;5.40;2.83;;;;;;;;;;6316392;22;20074;-92
2023/07/17 17:18:34;;;;;;;4.53;2.97;;;;;;;;;;6312366;22;20065;-95
2023/07/17 17:21:03;;;;;;;5.07;2.88;;;;;;;;;;6313919;22;20003;-95
2023/07/17 17:23:32;;;;;;;4.63;2.78;;;;;;;;;;6303407;22;20010;-96
2023/07/17 17:26:01;;;;;;;2.90;2.60;;;;;;;;;;6310637;22;20450;-93
2023/07/17 17:28:27;;;;;;;3.20;2.60;;;;;;;;;;6313143;22;20367;-94
2023/07/17 17:30:57;;;;;;;3.80;2.70;;;;;;;;;;6312826;22;19999;-94
2023/07/17 17:33:26;;;;;;;3.72;2.78;;;;;;;;;;6315594;22;20011;-94
2023/07/17 17:35:54;;;;;;;3.65;2.70;;;;;;;;;;6312347;22;20003;-94
2023/07/17 17:38:21;;;;;;;4.57;3.00;;;;;;;;;;6311713;22;20003;-90
2023/07/17 17:40:48;;;;;;;5.20;2.90;;;;;;;;;;6312470;22;20003;-91
2023/07/17 17:43:19;;;;;;;7.07;3.28;;;;;;;;;;6331033;22;19995;-94
2023/07/17 17:45:45;;;;;;;5.43;2.83;;;;;;;;;;6313580;22;20059;-92
2023/07/17 17:51:17;;;;;;;3.67;2.95;;;;;;;;;;6383213;22;20025;-94
2023/07/17 17:53:50;;;;;;;4.03;3.30;;;;;;;;;;6370581;22;20032;-93
2023/07/17 17:56:42;;;;;;;8.15;4.68;;;;;;;;;;6358049;22;20022;-92
2023/07/17 17:59:11;;;;;;;7.97;5.32;;;;;;;;;;6353718;22;20002;-96
2023/07/17 18:01:40;;;;;;;11.35;7.32;;;;;;;;;;6344700;22;20059;-94
2023/07/17 18:04:06;;;;;;;10.93;7.60;;;;;;;;;;6344367;22;20007;-90
2023/07/17 18:06:32;;;;;;;8.00;6.13;;;;;;;;;;6344553;22;20029;-92
2023/07/17 18:08:58;;;;;;;9.40;4.65;;;;;;;;;;6345215;22;20010;-91
2023/07/17 18:11:25;;;;;;;7.25;4.20;;;;;;;;;;6344431;22;20006;-90
2023/07/17 18:13:55;;;;;;;5.47;3.53;;;;;;;;;;6343672;22;20067;-92
2023/07/17 18:16:46;;;;;;;6.80;3.40;;;;;;;;;;6344291;22;20006;-90
2023/07/17 18:19:14;;;;;;;5.07;3.50;;;;;;;;;;6373769;22;20010;-95
2023/07/17 18:22:03;;;;;;;4.65;3.08;;;;;;;;;;6372500;22;20423;-96
2023/07/17 18:24:32;;;;;;;6.40;3.40;;;;;;;;;;6369666;22;19998;-93
2023/07/17 18:26:58;;;;;;;5.85;3.40;;;;;;;;;;6348719;22;20065;-93
2023/07/17 18:29:25;;;;;;;9.63;3.50;;;;;;;;;;6344573;22;20005;-92
2023/07/17 18:31:54;;;;;;;6.63;3.40;;;;;;;;;;6347061;22;20010;-96
2023/07/17 18:34:37;;;;;;;5.82;3.58;;;;;;;;;;6345600;22;20018;-96
2023/07/17 18:37:05;;;;;;;10.07;4.00;;;;;;;;;;6346497;22;20061;-91
2023/07/17 18:39:31;;;;;;;8.50;4.28;;;;;;;;;;6356581;22;20006;-91
2023/07/17 18:42:03;;;;;;;7.13;4.25;;;;;;;;;;6377232;22;20007;-92
2023/07/17 18:53:48;;;;;;;9.17;4.30;;;;;;;;;;5073645;22;28859725;-91
2023/07/17 19:00:35;;;;;;;;;;;;;;;;;;;;;
2023/07/17 19:05:55;;;;;;;;;;;;;;;;;;;;;
2023/07/17 19:17:06;;;;;;;9.77;3.92;;;;;;;;;;6396594;22;20006;-95
2023/07/17 19:19:38;;;;;;;9.93;4.22;;;;;;;;;;6366734;22;20013;-95
2023/07/17 19:22:30;;;;;;;10.20;4.20;;;;;;;;;;6356428;22;20458;-95
2023/07/17 19:25:05;;;;;;;7.05;4.25;;;;;;;;;;6346166;22;20003;-94
2023/07/17 19:28:09;;;;;;;7.72;4.22;;;;;;;;;;6347925;22;20002;-95
2023/07/17 19:30:58;;;;;;;10.05;4.30;;;;;;;;;;6245149;22;20300;-95
2023/07/17 19:42:25;;;;;;;5.65;4.30;;;;;;;;;;6398471;22;20002;-95
2023/07/17 19:58:17;;;;;;;10.85;4.90;;;;;;;;;;6187027;23;20056;-96
2023/07/17 20:03:53;;;;;;;10.68;4.18;;;;;;;;;;6184365;23;20152;-94
2023/07/17 20:06:26;;;;;;;7.47;4.22;;;;;;;;;;6191073;22;20124;-95
2023/07/17 20:08:58;;;;;;;6.57;4.50;;;;;;;;;;6254981;22;20015;-95
2023/07/17 20:14:37;;;;;;;;;;;;;;;;;;;;;
2023/07/17 20:23:57;;;;;;;7.25;4.72;;;;;;;;;;6276591;22;20008;-94
2023/07/17 20:26:26;;;;;;;8.38;4.78;;;;;;;;;;6277281;22;20011;-95
2023/07/17 20:31:21;;;;;;;9.27;4.97;;;;;;;;;;6374369;22;20504;-95
2023/07/17 20:33:50;;;;;;;7.32;4.10;;;;;;;;;;6344760;22;20002;-96
2023/07/17 20:36:16;;;;;;;7.75;4.90;;;;;;;;;;6347261;22;19999;-94
2023/07/17 20:38:48;;;;;;;8.45;5.13;;;;;;;;;;6345279;22;20030;-96
2023/07/17 20:41:21;;;;;;;7.45;4.53;;;;;;;;;;6345769;22;20081;-96
2023/07/17 20:43:50;;;;;;;6.78;4.95;;;;;;;;;;6344967;22;20006;-95
2023/07/17 20:46:32;;;;;;;7.38;4.60;;;;;;;;;;6344917;22;20021;-95
2023/07/17 20:48:58;;;;;;;7.00;3.83;;;;;;;;;;6344903;22;20025;-95
2023/07/17 20:51:33;;;;;;;4.32;3.63;;;;;;;;;;6344938;22;20002;-96
2023/07/17 20:54:06;;;;;;;5.78;3.60;;;;;;;;;;6344580;22;20033;-96
2023/07/17 20:56:42;;;;;;;4.35;3.60;;;;;;;;;;6344709;22;20432;-96
2023/07/17 20:59:11;;;;;;;6.35;3.70;;;;;;;;;;6345150;22;20317;-95
2023/07/17 21:01:41;;;;;;;6.00;3.40;;;;;;;;;;6345342;22;20036;-95
2023/07/17 21:04:13;;;;;;;4.65;3.03;;;;;;;;;;6344951;22;20462;-96
2023/07/17 21:10:25;;;;;;;4.07;3.40;;;;;;;;;;6308562;22;20451;-96
2023/07/17 21:13:04;;;;;;;;;;;;;;;;;;;;;
2023/07/17 21:15:33;;;;;;;5.88;3.55;;;;;;;;;;6374038;22;20077;-94
2023/07/17 21:18:03;;;;;;;3.60;3.10;;;;;;;;;;6346494;22;20006;-96
2023/07/17 21:20:35;;;;;;;5.68;3.10;;;;;;;;;;6346314;22;20006;-96
2023/07/17 21:23:02;;;;;;;5.93;3.40;;;;;;;;;;6355978;22;19982;-96
2023/07/17 21:25:28;;;;;;;4.50;3.08;;;;;;;;;;6369167;22;20229;-96
2023/07/17 21:27:54;;;;;;;3.55;2.67;;;;;;;;;;6358834;22;20490;-96
2023/07/17 21:30:32;;;;;;;4.15;3.25;;;;;;;;;;6343769;22;20005;-96
2023/07/17 21:33:12;;;;;;;5.28;3.13;;;;;;;;;;6344101;22;20018;-96
2023/07/17 21:35:41;;;;;;;5.13;3.00;;;;;;;;;;6345928;22;20034;-95
2023/07/17 21:38:11;;;;;;;4.30;3.13;;;;;;;;;;6345320;22;20005;-94
2023/07/17 21:43:42;;;;;;;;;;;;;;;;;;6382320;22;20129;-96
2023/07/17 21:46:15;;;;;;;3.55;2.75;;;;;;;;;;6368771;22;19889;-96
2023/07/17 21:48:47;;;;;;;3.85;2.88;;;;;;;;;;6357892;22;20002;-96
2023/07/17 21:51:49;;;;;;;4.18;3.28;;;;;;;;;;6345412;22;20003;-96
2023/07/17 21:54:15;;;;;;;4.13;3.05;;;;;;;;;;6314775;22;20011;-95
2023/07/17 21:56:44;;;;;;;6.00;3.08;;;;;;;;;;6344144;22;20009;-96
2023/07/17 21:59:22;;;;;;;3.55;3.20;;;;;;;;;;6345282;22;20060;-96
2023/07/17 22:01:51;;;;;;;4.13;3.17;;;;;;;;;;6345023;22;20006;-96
2023/07/17 22:07:38;;;;;;;4.45;3.30;;;;;;;;;;6372695;22;20002;-96
2023/07/17 22:10:23;;;;;;;4.95;3.20;;;;;;;;;;6351520;22;20011;-96
2023/07/17 22:12:55;;;;;;;4.95;3.42;;;;;;;;;;6360495;22;20006;-95
2023/07/17 22:15:23;;;;;;;5.03;3.30;;;;;;;;;;6363223;22;19999;-96
2023/07/17 22:21:29;;;;;;;4.25;3.28;;;;;;;;;;6246190;23;20047;-96
2023/07/17 22:23:55;;;;;;;7.65;3.58;;;;;;;;;;6246030;23;20104;-96
2023/07/17 22:26:42;;;;;;;6.32;3.55;;;;;;;;;;6335495;22;20006;-95
2023/07/17 22:29:11;;;;;;;5.93;3.80;;;;;;;;;;6344694;22;20009;-95
2023/07/17 22:32:44;;;;;;;4.28;3.28;;;;;;;;;;6334734;22;20095;-95
2023/07/17 22:34:42;;;;;;;5.97;3.95;;;;;;;;;;6351125;22;20422;-95
2023/07/17 22:37:12;;;;;;;4.05;3.20;;;;;;;;;;6344445;22;20010;-95
2023/07/17 22:40:07;;;;;;;4.82;3.45;;;;;;;;;;6343961;22;20051;-96
2023/07/17 22:42:36;;;;;;;5.30;3.53;;;;;;;;;;6344538;22;20010;-95
2023/07/17 22:45:02;;;;;;;4.30;3.50;;;;;;;;;;6343681;22;20002;-95
2023/07/17 22:48:00;;;;;;;;;;;;;;;;;;;;;
2023/07/17 22:50:27;;;;;;;4.03;3.40;;;;;;;;;;6364166;22;19998;-96
2023/07/17 22:53:02;;;;;;;4.78;3.45;;;;;;;;;;6346645;22;20006;-96
2023/07/17 22:55:34;;;;;;;4.30;3.70;;;;;;;;;;6346442;22;19998;-95
2023/07/17 22:58:06;;;;;;;5.40;3.77;;;;;;;;;;6347457;22;20139;-95
2023/07/17 23:00:38;;;;;;;4.70;4.20;;;;;;;;;;6323887;22;20380;-94
2023/07/17 23:03:04;;;;;;;7.10;3.80;;;;;;;;;;6311579;22;20019;-96
2023/07/17 23:05:37;;;;;;;5.68;3.60;;;;;;;;;;6312898;22;20425;-96
2023/07/17 23:08:09;;;;;;;6.22;3.80;;;;;;;;;;6321397;22;20009;-96
2023/07/17 23:10:35;;;;;;;4.50;3.67;;;;;;;;;;6332082;22;20014;-96
2023/07/17 23:13:07;;;;;;;5.68;3.88;;;;;;;;;;6315423;22;20003;-96
2023/07/17 23:18:54;;;;;;;11.50;4.00;;;;;;;;;;6187002;23;20012;-95
2023/07/17 23:24:22;;;;;;;5.82;3.88;;;;;;;;;;6311081;22;20059;-96
2023/07/17 23:26:48;;;;;;;5.13;3.85;;;;;;;;;;6310046;22;20003;-96
2023/07/17 23:29:18;;;;;;;6.45;3.90;;;;;;;;;;6311077;22;20003;-96
2023/07/17 23:32:04;;;;;;;4.65;3.97;;;;;;;;;;6312926;22;20458;-95